Karlovy Vary, Czech Republic

11:56 PM CEST on October 21, 2014 (GMT +0200)
Karlovy Vary | Change Station
CLOSE
Current Station
Airport
Location: Karlovy Vary,
Elevation: 1988 ft
Nearby Weather Stations

Elev 1988 ft 50.20 °N, 12.91 °E | Updated 56 minutes ago

Rain Showers
Showers Rain
45 °F
Feels Like 40 °F
N
9
Wind Variable Wind from WSW

Today
High -- | Low -- °F
--% Chance of Precip.
Yesterday
High -- | Low -- °F
Precip. -- in
7:39 AM 6:05 PM
Waning Crescent, 4% visible
Pressure 29.56 in
Visibility 6.2 miles
Clouds Scattered Clouds 2000 ft
Mostly Cloudy 3300 ft
Windchill 40 °F
Dew Point 43 °F
Humidity 93%
Rainfall 0.00 in
Snow Depth Not available.
UV 0 out of 12
Pollen Not available.
Air Quality Not available.
Flu Activity Not available.
METAR LKKV 212100Z 25008KT 9999 SHRA SCT020 BKN033 07/06 Q1001

More Conditions Fewer Conditions

Pressure 29.56 in
Visibility 6.2 miles
Clouds Scattered Clouds 2000 ft
Mostly Cloudy 3300 ft
Windchill 40 °F
Dew Point 43 °F
Humidity 93%
Rainfall 0.00 in
Snow Depth Not available.
UV 0 out of 12
Pollen Not available.
Air Quality Not available.
Flu Activity Not available.
METAR LKKV 212100Z 25008KT 9999 SHRA SCT020 BKN033 07/06 Q1001

More Conditions Fewer Conditions

10-Day Weather Forecast

Almanac

Astronomy

Oct. 21, 2014 Rise Set
Actual Time 7:39 AM CEST 6:05 PM CEST
Civil Twilight 7:06 AM CEST 6:38 PM CEST
Nautical Twilight 6:28 AM CEST 7:16 PM CEST
Astronomical Twilight 5:51 AM CEST 7:53 PM CEST
Moon 4:53 AM CEST 5:02 PM CEST
Length of Visible Light 11h 31m
Length of Day
10h 25m
Tomorrow will be 3m 36s shorter.
Waning Crescent, 4% of the Moon is Illuminated
Today
Waning Crescent
Oct 23
New
Oct 30
First Quarter
Nov 6
Full
Nov 14
Last Quarter

Today's Extremes

Country Highs Country Lows

Community

WunderPhotos

Upload Photos

1,763,785 photos uploaded!

Nearby

Snow Depth

Not available.

Earthquake Activity

City Distance Mag. Time & Date
No recent earthquake activity has been reported nearby.
Minimum magnitude displayed is 2.5.

Coastal Water Temperatures

Place Temperature
No Stations Reporting

Nearby Weather Stations